createdAt,value
2019-05-07T00:02:06.603Z,4.97
2019-05-07T00:04:35.941Z,5.00
2019-05-07T00:07:05.473Z,5.04
2019-05-07T00:09:35.108Z,5.04
2019-05-07T00:12:43.873Z,5.06
2019-05-07T00:15:54.060Z,5.05
2019-05-07T00:21:37.772Z,5.07
2019-05-07T00:24:46.703Z,5.09
2019-05-07T00:27:55.641Z,5.11
2019-05-07T00:36:43.979Z,5.08
2019-05-07T00:39:32.765Z,5.08
2019-05-07T00:42:22.694Z,5.04
2019-05-07T00:48:02.906Z,4.98
2019-05-07T00:50:35.625Z,4.81
2019-05-07T00:53:44.888Z,4.80
2019-05-07T00:59:28.996Z,4.77
2019-05-07T01:05:27.008Z,4.85
2019-05-07T01:11:13.196Z,4.86
2019-05-07T01:16:44.667Z,4.88
2019-05-07T01:19:14.065Z,4.85
2019-05-07T01:22:22.765Z,4.81
2019-05-07T01:27:42.844Z,4.70
2019-05-07T01:30:14.594Z,4.65
2019-05-07T01:36:05.529Z,4.59
2019-05-07T01:41:52.303Z,4.50
2019-05-07T01:44:22.117Z,4.44
2019-05-07T01:46:53.038Z,4.38
2019-05-07T01:51:59.694Z,4.38
2019-05-07T01:54:29.420Z,4.39
2019-05-07T01:57:17.803Z,4.38
2019-05-07T02:03:23.108Z,4.25
2019-05-07T02:06:13.189Z,4.21
2019-05-07T02:09:03.316Z,4.18
2019-05-07T02:14:46.854Z,4.11
2019-05-07T02:17:16.604Z,4.08
2019-05-07T02:19:46.099Z,4.05
2019-05-07T02:25:12.653Z,4.00
2019-05-07T02:30:57.645Z,3.98
2019-05-07T02:34:06.351Z,3.93
2019-05-07T02:39:33.296Z,3.85
2019-05-07T02:45:03.724Z,3.81
2019-05-07T02:54:13.428Z,3.87
2019-05-07T02:56:43.175Z,3.89
2019-05-07T02:59:13.608Z,3.91
2019-05-07T03:01:44.591Z,3.93
2019-05-07T03:04:14.179Z,3.99
2019-05-07T03:06:44.253Z,4.03
2019-05-07T03:12:16.658Z,4.12
2019-05-07T03:14:46.205Z,4.15
2019-05-07T03:17:15.741Z,4.13
2019-05-07T03:20:24.548Z,4.14
2019-05-07T03:26:14.435Z,4.20
2019-05-07T03:29:03.945Z,4.24
2019-05-07T03:31:56.235Z,4.26
2019-05-07T03:34:46.719Z,4.29
2019-05-07T03:39:55.215Z,4.34
2019-05-07T03:42:24.805Z,4.41
2019-05-07T03:45:13.829Z,4.42
2019-05-07T03:47:48.086Z,4.44
2019-05-07T03:50:17.640Z,4.43
2019-05-07T03:52:47.120Z,4.43
2019-05-07T03:55:16.785Z,4.53
2019-05-07T03:58:25.578Z,4.64
2019-05-07T04:03:56.235Z,4.80
2019-05-07T04:07:05.000Z,4.91
2019-05-07T04:10:15.444Z,4.91
2019-05-07T04:12:46.378Z,4.98
2019-05-07T04:15:55.115Z,5.13
2019-05-07T04:18:24.653Z,5.16
2019-05-07T04:20:54.337Z,5.15
2019-05-07T04:29:15.838Z,5.04
2019-05-07T04:31:45.881Z,5.14
2019-05-07T04:37:23.784Z,5.19
2019-05-07T04:40:13.513Z,5.25
2019-05-07T04:42:43.069Z,5.35
2019-05-07T04:45:53.723Z,5.42
2019-05-07T04:48:23.760Z,5.46
2019-05-07T04:51:08.669Z,5.49
2019-05-07T04:53:38.226Z,5.55
2019-05-07T04:56:07.849Z,5.60
2019-05-07T04:58:37.762Z,5.62
2019-05-07T05:03:44.558Z,5.71
2019-05-07T05:06:14.067Z,5.76
2019-05-07T05:08:43.837Z,5.75
2019-05-07T05:11:15.383Z,5.86
2019-05-07T05:16:54.482Z,6.11
2019-05-07T05:19:23.873Z,6.14
2019-05-07T05:22:12.800Z,6.14
2019-05-07T05:27:36.045Z,6.17
2019-05-07T05:33:23.477Z,6.24
2019-05-07T05:35:53.141Z,6.31
2019-05-07T05:38:22.702Z,6.31
2019-05-07T05:40:52.302Z,6.34
2019-05-07T05:43:42.874Z,6.39
2019-05-07T05:46:13.574Z,6.39
2019-05-07T05:51:59.356Z,6.40
2019-05-07T05:54:32.666Z,6.43
2019-05-07T06:00:53.022Z,6.44
2019-05-07T06:03:53.882Z,6.41
2019-05-07T06:06:43.298Z,6.39
2019-05-07T06:17:45.826Z,6.49
2019-05-07T06:23:36.280Z,6.54
2019-05-07T06:29:02.456Z,6.67
2019-05-07T06:31:33.957Z,6.61
2019-05-07T06:34:03.377Z,6.51
2019-05-07T06:40:02.639Z,6.40
2019-05-07T06:42:54.929Z,6.29
2019-05-07T06:50:59.395Z,6.05
2019-05-07T06:56:44.844Z,6.01
2019-05-07T06:59:54.059Z,5.95
2019-05-07T07:08:12.489Z,5.95
2019-05-07T07:11:02.735Z,6.04
2019-05-07T07:14:11.966Z,6.18
2019-05-07T07:16:43.026Z,6.36
2019-05-07T07:19:53.685Z,6.30
2019-05-07T07:22:23.880Z,6.39
2019-05-07T07:24:53.392Z,6.44
2019-05-07T07:27:23.010Z,6.52
2019-05-07T07:32:49.173Z,6.80
2019-05-07T07:35:19.630Z,6.89
2019-05-07T07:38:28.460Z,6.97
2019-05-07T07:47:14.701Z,7.01
2019-05-07T07:52:42.027Z,7.05
2019-05-07T07:58:46.825Z,7.17
2019-05-07T08:07:15.209Z,7.16
2019-05-07T08:09:44.725Z,7.26
2019-05-07T08:15:35.048Z,7.41
2019-05-07T08:21:29.769Z,7.65
2019-05-07T08:24:02.734Z,7.66
2019-05-07T08:26:32.516Z,7.66
2019-05-07T08:32:35.169Z,7.48
2019-05-07T08:35:44.127Z,7.61
2019-05-07T08:50:57.875Z,9.32
2019-05-07T08:53:27.401Z,9.40
2019-05-07T08:59:57.445Z,9.32
2019-05-07T09:02:21.777Z,9.25
2019-05-07T09:04:52.230Z,9.10
2019-05-07T09:08:02.256Z,8.96
2019-05-07T09:10:32.727Z,9.10
2019-05-07T09:13:04.216Z,9.26
2019-05-07T09:18:48.828Z,9.38
2019-05-07T09:21:18.260Z,9.19
2019-05-07T09:27:02.990Z,8.80
2019-05-07T09:38:06.554Z,8.64
2019-05-07T09:43:45.004Z,8.38
2019-05-07T09:46:14.504Z,7.98
2019-05-07T09:48:43.856Z,7.92
2019-05-07T09:51:52.633Z,7.97
2019-05-07T09:54:23.106Z,7.88
2019-05-07T09:57:34.745Z,7.81
2019-05-07T10:09:02.952Z,8.28
2019-05-07T10:14:57.360Z,8.16
2019-05-07T10:20:42.251Z,8.05
2019-05-07T10:26:22.554Z,8.13
2019-05-07T10:32:06.687Z,7.96
2019-05-07T10:34:36.107Z,7.77
2019-05-07T10:37:05.699Z,7.61
2019-05-07T10:39:35.124Z,7.61
2019-05-07T10:42:04.673Z,7.36
2019-05-07T10:47:48.930Z,7.19
2019-05-07T10:50:39.319Z,7.14
2019-05-07T10:53:09.400Z,7.07
2019-05-07T10:55:39.004Z,7.25
2019-05-07T10:58:08.515Z,7.45
2019-05-07T11:09:37.934Z,7.15
2019-05-07T11:12:07.594Z,6.96
2019-05-07T11:14:37.045Z,6.96
2019-05-07T11:20:03.409Z,7.13
2019-05-07T11:23:12.211Z,7.30
2019-05-07T11:25:42.159Z,7.37
2019-05-07T11:28:13.530Z,7.30
2019-05-07T11:30:43.408Z,7.21
2019-05-07T11:33:13.070Z,7.30
2019-05-07T11:35:44.139Z,7.32
2019-05-07T11:38:53.968Z,7.49
2019-05-07T11:41:42.877Z,7.67
2019-05-07T11:44:18.154Z,8.00
2019-05-07T11:47:06.481Z,8.29
2019-05-07T11:55:52.290Z,8.94
2019-05-07T11:58:22.115Z,8.83
2019-05-07T12:06:32.158Z,8.48
2019-05-07T12:12:06.856Z,8.44
2019-05-07T12:14:36.210Z,8.59
2019-05-07T12:17:44.892Z,8.69
2019-05-07T12:23:12.141Z,9.05
2019-05-07T12:25:42.899Z,9.10
2019-05-07T12:28:13.246Z,9.16
2019-05-07T12:31:12.161Z,9.23
2019-05-07T12:34:02.418Z,9.36
2019-05-07T12:36:39.939Z,9.21
2019-05-07T12:39:10.107Z,9.12
2019-05-07T12:41:41.735Z,8.95
2019-05-07T12:44:12.976Z,9.10
2019-05-07T12:46:42.477Z,9.04
2019-05-07T12:49:12.204Z,8.98
2019-05-07T12:51:56.236Z,9.09
2019-05-07T12:57:34.633Z,9.11
2019-05-07T13:03:21.829Z,9.19
2019-05-07T13:05:52.055Z,9.25
2019-05-07T13:08:23.009Z,9.18
2019-05-07T13:10:52.784Z,9.18
2019-05-07T13:13:22.244Z,9.24
2019-05-07T13:15:51.852Z,9.26
2019-05-07T13:18:23.263Z,9.23
2019-05-07T13:23:42.211Z,9.28
2019-05-07T13:26:12.637Z,8.76
2019-05-07T13:28:44.389Z,9.31
2019-05-07T13:31:13.558Z,9.27
2019-05-07T13:34:22.932Z,9.29
2019-05-07T13:37:15.087Z,9.34
2019-05-07T13:39:55.643Z,9.39
2019-05-07T13:42:44.119Z,9.40
2019-05-07T13:45:22.431Z,9.39
2019-05-07T13:47:58.312Z,9.14
2019-05-07T13:50:27.821Z,9.08
2019-05-07T13:52:57.570Z,9.15
2019-05-07T13:55:26.944Z,9.14
2019-05-07T13:57:56.644Z,9.26
2019-05-07T14:06:33.817Z,9.63
2019-05-07T14:12:06.147Z,9.73
2019-05-07T14:20:42.481Z,9.93
2019-05-07T14:23:14.160Z,9.96
2019-05-07T14:25:54.748Z,10.00
2019-05-07T14:28:24.351Z,10.10
2019-05-07T14:30:53.733Z,9.62
2019-05-07T14:33:41.376Z,9.81
2019-05-07T14:36:27.530Z,9.84
2019-05-07T14:38:56.907Z,9.65
2019-05-07T14:41:26.863Z,9.47
2019-05-07T14:46:50.419Z,9.42
2019-05-07T14:49:12.716Z,9.52
2019-05-07T14:51:42.220Z,9.48
2019-05-07T14:54:12.352Z,9.29
2019-05-07T14:59:57.839Z,9.34
2019-05-07T15:05:23.145Z,9.44
2019-05-07T15:10:56.157Z,9.29
2019-05-07T15:13:25.861Z,9.28
2019-05-07T15:15:55.286Z,9.05
2019-05-07T15:18:43.618Z,9.03
2019-05-07T15:27:16.800Z,9.05
2019-05-07T15:29:46.313Z,9.14
2019-05-07T15:32:15.730Z,9.09
2019-05-07T15:34:45.209Z,9.94
2019-05-07T15:37:14.718Z,10.65
2019-05-07T15:40:23.402Z,10.43
2019-05-07T15:43:32.505Z,10.14
2019-05-07T15:46:04.281Z,9.93
2019-05-07T15:48:33.712Z,9.74
2019-05-07T15:51:03.083Z,9.69
2019-05-07T15:53:52.166Z,9.63
2019-05-07T15:56:22.025Z,9.57
2019-05-07T16:05:02.193Z,9.51
2019-05-07T16:07:32.851Z,9.46
2019-05-07T16:16:21.554Z,9.29
2019-05-07T16:19:23.323Z,9.18
2019-05-07T16:22:32.816Z,9.11
2019-05-07T16:28:29.567Z,9.06
2019-05-07T16:31:00.099Z,8.79
2019-05-07T16:33:29.517Z,8.59
2019-05-07T16:35:59.142Z,8.66
2019-05-07T16:44:52.322Z,8.48
2019-05-07T16:47:22.829Z,8.43
2019-05-07T16:50:13.077Z,8.39
2019-05-07T16:52:44.393Z,8.39
2019-05-07T16:58:48.206Z,8.33
2019-05-07T17:01:37.443Z,8.32
2019-05-07T17:07:10.699Z,8.25
2019-05-07T17:09:40.122Z,8.21
2019-05-07T17:15:02.754Z,8.08
2019-05-07T17:17:32.118Z,8.06
2019-05-07T17:20:02.771Z,8.06
2019-05-07T17:22:32.510Z,8.09
2019-05-07T17:34:11.634Z,8.03
2019-05-07T17:40:06.590Z,7.90
2019-05-07T17:45:26.502Z,7.72
2019-05-07T17:47:56.245Z,7.61
2019-05-07T17:53:06.133Z,7.49
2019-05-07T17:55:35.776Z,7.45
2019-05-07T18:03:39.404Z,7.11
2019-05-07T18:06:09.821Z,7.07
2019-05-07T18:08:42.539Z,7.04
2019-05-07T18:11:21.018Z,6.96
2019-05-07T18:13:43.235Z,6.87
2019-05-07T18:22:09.525Z,6.70
2019-05-07T18:24:38.941Z,6.67
2019-05-07T18:29:58.670Z,6.59
2019-05-07T18:32:36.746Z,6.50
2019-05-07T18:38:16.011Z,6.54
2019-05-07T18:40:45.396Z,6.54
2019-05-07T18:43:14.862Z,6.51
2019-05-07T18:45:44.997Z,6.50
2019-05-07T18:48:14.419Z,6.49
2019-05-07T18:50:45.187Z,6.50
2019-05-07T18:53:14.777Z,6.54
2019-05-07T18:55:44.579Z,5.79
2019-05-07T18:58:54.722Z,6.07
2019-05-07T19:01:26.145Z,6.52
2019-05-07T19:03:56.269Z,6.48
2019-05-07T19:06:25.678Z,6.51
2019-05-07T19:08:55.118Z,6.55
2019-05-07T19:11:24.614Z,6.53
2019-05-07T19:19:33.001Z,6.50
2019-05-07T19:22:02.373Z,6.44
2019-05-07T19:24:44.711Z,6.42
2019-05-07T19:27:02.876Z,6.32
2019-05-07T19:29:32.753Z,6.19
2019-05-07T19:32:14.953Z,6.10
2019-05-07T19:37:53.335Z,5.95
2019-05-07T19:40:42.053Z,5.87
2019-05-07T19:43:14.313Z,5.87
2019-05-07T19:46:03.276Z,5.81
2019-05-07T19:48:33.981Z,5.76
2019-05-07T19:51:03.351Z,5.74
2019-05-07T19:53:32.886Z,5.76
2019-05-07T19:56:11.068Z,5.64
2019-05-07T19:58:41.959Z,5.62
2019-05-07T20:01:13.491Z,5.58
2019-05-07T20:03:43.533Z,5.59
2019-05-07T20:06:13.124Z,5.53
2019-05-07T20:09:21.818Z,5.45
2019-05-07T20:14:47.613Z,5.32
2019-05-07T20:17:56.482Z,5.21
2019-05-07T20:20:26.094Z,5.19
2019-05-07T20:22:55.473Z,5.12
2019-05-07T20:26:05.339Z,5.13
2019-05-07T20:28:36.340Z,5.08
2019-05-07T20:31:05.930Z,5.00
2019-05-07T20:33:35.853Z,5.01
2019-05-07T20:42:07.894Z,4.91
2019-05-07T20:45:17.084Z,4.77
2019-05-07T20:50:37.061Z,4.86
2019-05-07T20:58:40.318Z,4.58
2019-05-07T21:01:09.713Z,4.57
2019-05-07T21:03:39.897Z,4.62
2019-05-07T21:08:46.532Z,4.59
2019-05-07T21:11:15.956Z,4.57
2019-05-07T21:13:45.505Z,4.56
2019-05-07T21:16:15.584Z,4.61
2019-05-07T21:18:45.312Z,4.63
2019-05-07T21:21:14.827Z,4.62
2019-05-07T21:23:44.320Z,4.61
2019-05-07T21:26:13.950Z,4.58
2019-05-07T21:28:43.602Z,4.55
2019-05-07T21:31:13.136Z,4.47
2019-05-07T21:36:38.298Z,4.33
2019-05-07T21:42:35.902Z,4.29
2019-05-07T21:48:22.133Z,4.18
2019-05-07T21:51:12.171Z,4.23
2019-05-07T21:57:02.332Z,4.26
2019-05-07T22:08:21.899Z,4.02
2019-05-07T22:10:52.554Z,4.03
2019-05-07T22:13:22.233Z,4.03
2019-05-07T22:22:34.564Z,4.01
2019-05-07T22:25:05.276Z,3.98
2019-05-07T22:27:34.901Z,4.02
2019-05-07T22:30:44.051Z,4.05
2019-05-07T22:39:37.347Z,3.94
2019-05-07T22:44:58.134Z,3.91
2019-05-07T22:47:27.670Z,3.95
2019-05-07T22:49:57.442Z,3.93
2019-05-07T22:52:27.031Z,3.90
2019-05-07T22:58:32.447Z,3.77
2019-05-07T23:04:12.118Z,3.41
2019-05-07T23:06:41.577Z,3.34
2019-05-07T23:12:14.554Z,3.05
2019-05-07T23:18:32.725Z,2.99
2019-05-07T23:21:02.706Z,2.97
2019-05-07T23:24:11.443Z,3.02
2019-05-07T23:26:50.277Z,3.02
2019-05-07T23:29:12.805Z,2.96
2019-05-07T23:31:42.322Z,2.79
2019-05-07T23:37:22.465Z,2.80
2019-05-07T23:46:08.555Z,2.78
2019-05-07T23:48:37.896Z,2.79
2019-05-07T23:51:47.749Z,2.78
2019-05-07T23:54:17.264Z,2.79
2019-05-07T23:56:46.619Z,2.73
